sensor_id;sensor_type;location;lat;lon;timestamp;temperature;humidity
78876;DHT22;68253;52.506;5.486;2023-05-10T00:00:46;13.80;75.80
78876;DHT22;68253;52.506;5.486;2023-05-10T00:03:12;13.80;75.80
78876;DHT22;68253;52.506;5.486;2023-05-10T00:05:38;13.80;75.80
78876;DHT22;68253;52.506;5.486;2023-05-10T00:08:04;13.80;75.70
78876;DHT22;68253;52.506;5.486;2023-05-10T00:10:30;13.80;75.80
78876;DHT22;68253;52.506;5.486;2023-05-10T00:12:56;13.80;75.70
78876;DHT22;68253;52.506;5.486;2023-05-10T00:15:23;13.80;75.70
78876;DHT22;68253;52.506;5.486;2023-05-10T00:17:49;13.80;75.60
78876;DHT22;68253;52.506;5.486;2023-05-10T00:20:15;13.80;75.60
78876;DHT22;68253;52.506;5.486;2023-05-10T00:22:41;13.80;75.70
78876;DHT22;68253;52.506;5.486;2023-05-10T00:25:08;13.80;75.70
78876;DHT22;68253;52.506;5.486;2023-05-10T00:27:34;13.80;75.80
78876;DHT22;68253;52.506;5.486;2023-05-10T00:30:00;13.80;75.80
78876;DHT22;68253;52.506;5.486;2023-05-10T00:32:27;13.80;75.80
78876;DHT22;68253;52.506;5.486;2023-05-10T00:34:53;13.80;76.00
78876;DHT22;68253;52.506;5.486;2023-05-10T00:37:19;13.80;76.00
78876;DHT22;68253;52.506;5.486;2023-05-10T00:39:45;13.90;76.00
78876;DHT22;68253;52.506;5.486;2023-05-10T00:42:11;13.90;76.00
78876;DHT22;68253;52.506;5.486;2023-05-10T00:44:37;13.90;75.90
78876;DHT22;68253;52.506;5.486;2023-05-10T00:47:05;13.80;75.80
78876;DHT22;68253;52.506;5.486;2023-05-10T00:49:31;13.80;75.70
78876;DHT22;68253;52.506;5.486;2023-05-10T00:51:57;13.80;75.70
78876;DHT22;68253;52.506;5.486;2023-05-10T00:54:23;13.70;75.70
78876;DHT22;68253;52.506;5.486;2023-05-10T00:56:51;13.70;75.80
78876;DHT22;68253;52.506;5.486;2023-05-10T00:59:18;13.70;75.80
78876;DHT22;68253;52.506;5.486;2023-05-10T01:01:45;13.70;75.80
78876;DHT22;68253;52.506;5.486;2023-05-10T01:04:12;13.70;75.90
78876;DHT22;68253;52.506;5.486;2023-05-10T01:06:42;13.60;75.90
78876;DHT22;68253;52.506;5.486;2023-05-10T01:09:08;13.60;75.90
78876;DHT22;68253;52.506;5.486;2023-05-10T01:11:37;13.60;75.80
78876;DHT22;68253;52.506;5.486;2023-05-10T01:14:03;13.60;75.80
78876;DHT22;68253;52.506;5.486;2023-05-10T01:16:37;13.60;75.80
78876;DHT22;68253;52.506;5.486;2023-05-10T01:19:22;13.60;75.80
78876;DHT22;68253;52.506;5.486;2023-05-10T01:36:44;13.50;76.10
78876;DHT22;68253;52.506;5.486;2023-05-10T01:39:21;13.50;76.10
78876;DHT22;68253;52.506;5.486;2023-05-10T01:41:57;13.50;76.10
78876;DHT22;68253;52.506;5.486;2023-05-10T01:44:46;13.50;76.10
78876;DHT22;68253;52.506;5.486;2023-05-10T01:47:35;13.50;76.10
78876;DHT22;68253;52.506;5.486;2023-05-10T01:50:04;13.60;76.10
78876;DHT22;68253;52.506;5.486;2023-05-10T01:52:37;13.60;76.00
78876;DHT22;68253;52.506;5.486;2023-05-10T01:55:10;13.60;76.00
78876;DHT22;68253;52.506;5.486;2023-05-10T01:57:37;13.60;75.80
78876;DHT22;68253;52.506;5.486;2023-05-10T02:00:06;13.60;75.70
78876;DHT22;68253;52.506;5.486;2023-05-10T02:02:45;13.60;75.70
78876;DHT22;68253;52.506;5.486;2023-05-10T02:05:13;13.60;75.60
78876;DHT22;68253;52.506;5.486;2023-05-10T02:07:41;13.60;75.50
78876;DHT22;68253;52.506;5.486;2023-05-10T02:10:09;13.60;75.30
78876;DHT22;68253;52.506;5.486;2023-05-10T02:12:37;13.60;75.20
78876;DHT22;68253;52.506;5.486;2023-05-10T02:15:07;13.60;75.00
78876;DHT22;68253;52.506;5.486;2023-05-10T02:17:35;13.50;75.10
78876;DHT22;68253;52.506;5.486;2023-05-10T02:20:04;13.50;75.10
78876;DHT22;68253;52.506;5.486;2023-05-10T02:22:33;13.50;75.30
78876;DHT22;68253;52.506;5.486;2023-05-10T02:25:01;13.50;75.30
78876;DHT22;68253;52.506;5.486;2023-05-10T02:27:28;13.50;75.30
78876;DHT22;68253;52.506;5.486;2023-05-10T02:29:55;13.50;75.30
78876;DHT22;68253;52.506;5.486;2023-05-10T02:32:24;13.50;75.30
78876;DHT22;68253;52.506;5.486;2023-05-10T02:34:52;13.50;75.30
78876;DHT22;68253;52.506;5.486;2023-05-10T02:37:20;13.50;75.30
78876;DHT22;68253;52.506;5.486;2023-05-10T02:39:48;13.50;75.30
78876;DHT22;68253;52.506;5.486;2023-05-10T02:42:17;13.50;75.30
78876;DHT22;68253;52.506;5.486;2023-05-10T02:44:47;13.50;75.30
78876;DHT22;68253;52.506;5.486;2023-05-10T02:47:15;13.50;75.40
78876;DHT22;68253;52.506;5.486;2023-05-10T02:49:41;13.50;75.50
78876;DHT22;68253;52.506;5.486;2023-05-10T02:52:08;13.60;75.50
78876;DHT22;68253;52.506;5.486;2023-05-10T02:54:43;13.50;75.60
78876;DHT22;68253;52.506;5.486;2023-05-10T02:57:14;13.60;75.50
78876;DHT22;68253;52.506;5.486;2023-05-10T02:59:41;13.60;75.50
78876;DHT22;68253;52.506;5.486;2023-05-10T03:02:10;13.60;75.50
78876;DHT22;68253;52.506;5.486;2023-05-10T03:04:36;13.60;75.40
78876;DHT22;68253;52.506;5.486;2023-05-10T03:07:03;13.60;75.40
78876;DHT22;68253;52.506;5.486;2023-05-10T03:09:29;13.60;75.50
78876;DHT22;68253;52.506;5.486;2023-05-10T03:18:32;13.60;75.50
78876;DHT22;68253;52.506;5.486;2023-05-10T03:20:51;13.60;75.50
78876;DHT22;68253;52.506;5.486;2023-05-10T03:25:49;13.60;75.40
78876;DHT22;68253;52.506;5.486;2023-05-10T03:28:18;13.60;75.40
78876;DHT22;68253;52.506;5.486;2023-05-10T03:30:45;13.60;75.30
78876;DHT22;68253;52.506;5.486;2023-05-10T03:33:12;13.60;75.20
78876;DHT22;68253;52.506;5.486;2023-05-10T03:35:42;13.50;75.10
78876;DHT22;68253;52.506;5.486;2023-05-10T03:38:10;13.50;75.10
78876;DHT22;68253;52.506;5.486;2023-05-10T03:40:37;13.50;75.10
78876;DHT22;68253;52.506;5.486;2023-05-10T03:43:03;13.50;75.10
78876;DHT22;68253;52.506;5.486;2023-05-10T03:45:29;13.50;75.20
78876;DHT22;68253;52.506;5.486;2023-05-10T03:47:57;13.50;75.20
78876;DHT22;68253;52.506;5.486;2023-05-10T03:50:24;13.50;75.10
78876;DHT22;68253;52.506;5.486;2023-05-10T03:52:50;13.50;75.10
78876;DHT22;68253;52.506;5.486;2023-05-10T03:55:16;13.50;75.00
78876;DHT22;68253;52.506;5.486;2023-05-10T03:57:42;13.40;75.10
78876;DHT22;68253;52.506;5.486;2023-05-10T04:00:09;13.40;75.10
78876;DHT22;68253;52.506;5.486;2023-05-10T04:02:42;13.40;75.10
78876;DHT22;68253;52.506;5.486;2023-05-10T04:05:12;13.40;75.20
78876;DHT22;68253;52.506;5.486;2023-05-10T04:07:38;13.40;75.10
78876;DHT22;68253;52.506;5.486;2023-05-10T04:10:04;13.40;75.10
78876;DHT22;68253;52.506;5.486;2023-05-10T04:12:31;13.40;75.10
78876;DHT22;68253;52.506;5.486;2023-05-10T04:14:57;13.40;75.10
78876;DHT22;68253;52.506;5.486;2023-05-10T04:17:23;13.40;75.10
78876;DHT22;68253;52.506;5.486;2023-05-10T04:19:49;13.40;74.70
78876;DHT22;68253;52.506;5.486;2023-05-10T04:22:15;13.40;74.80
78876;DHT22;68253;52.506;5.486;2023-05-10T04:24:41;13.30;74.90
78876;DHT22;68253;52.506;5.486;2023-05-10T04:27:07;13.30;74.80
78876;DHT22;68253;52.506;5.486;2023-05-10T04:29:34;13.30;74.70
78876;DHT22;68253;52.506;5.486;2023-05-10T04:32:00;13.30;74.70
78876;DHT22;68253;52.506;5.486;2023-05-10T04:34:26;13.30;74.60
78876;DHT22;68253;52.506;5.486;2023-05-10T04:36:52;13.30;74.50
78876;DHT22;68253;52.506;5.486;2023-05-10T04:39:18;13.30;74.60
78876;DHT22;68253;52.506;5.486;2023-05-10T04:41:44;13.30;74.50
78876;DHT22;68253;52.506;5.486;2023-05-10T04:44:10;13.30;74.40
78876;DHT22;68253;52.506;5.486;2023-05-10T04:46:37;13.30;74.30
78876;DHT22;68253;52.506;5.486;2023-05-10T04:49:03;13.30;74.30
78876;DHT22;68253;52.506;5.486;2023-05-10T04:51:29;13.30;74.30
78876;DHT22;68253;52.506;5.486;2023-05-10T04:53:55;13.30;74.40
78876;DHT22;68253;52.506;5.486;2023-05-10T04:56:21;13.30;74.50
78876;DHT22;68253;52.506;5.486;2023-05-10T04:58:48;13.30;74.60
78876;DHT22;68253;52.506;5.486;2023-05-10T05:01:15;13.30;74.70
78876;DHT22;68253;52.506;5.486;2023-05-10T05:03:41;13.30;74.70
78876;DHT22;68253;52.506;5.486;2023-05-10T05:06:08;13.30;74.70
78876;DHT22;68253;52.506;5.486;2023-05-10T05:08:34;13.30;74.70
78876;DHT22;68253;52.506;5.486;2023-05-10T05:11:00;13.30;74.70
78876;DHT22;68253;52.506;5.486;2023-05-10T05:13:26;13.30;74.70
78876;DHT22;68253;52.506;5.486;2023-05-10T05:15:52;13.30;74.70
78876;DHT22;68253;52.506;5.486;2023-05-10T05:18:19;13.20;74.80
78876;DHT22;68253;52.506;5.486;2023-05-10T05:20:45;13.20;74.90
78876;DHT22;68253;52.506;5.486;2023-05-10T05:23:11;13.20;75.00
78876;DHT22;68253;52.506;5.486;2023-05-10T05:25:37;13.10;75.00
78876;DHT22;68253;52.506;5.486;2023-05-10T05:28:03;13.10;75.00
78876;DHT22;68253;52.506;5.486;2023-05-10T05:30:30;13.20;75.00
78876;DHT22;68253;52.506;5.486;2023-05-10T05:32:56;13.20;75.20
78876;DHT22;68253;52.506;5.486;2023-05-10T05:35:22;13.20;75.20
78876;DHT22;68253;52.506;5.486;2023-05-10T05:37:48;13.30;75.20
78876;DHT22;68253;52.506;5.486;2023-05-10T05:40:14;13.30;75.20
78876;DHT22;68253;52.506;5.486;2023-05-10T05:42:41;13.30;75.10
78876;DHT22;68253;52.506;5.486;2023-05-10T05:45:07;13.50;74.80
78876;DHT22;68253;52.506;5.486;2023-05-10T05:47:34;13.50;74.70
78876;DHT22;68253;52.506;5.486;2023-05-10T05:50:00;13.50;74.60
78876;DHT22;68253;52.506;5.486;2023-05-10T05:52:26;13.50;74.70
78876;DHT22;68253;52.506;5.486;2023-05-10T05:54:52;13.50;74.60
78876;DHT22;68253;52.506;5.486;2023-05-10T05:57:19;13.50;74.50
78876;DHT22;68253;52.506;5.486;2023-05-10T05:59:45;13.50;74.50
78876;DHT22;68253;52.506;5.486;2023-05-10T06:02:11;13.50;74.50
78876;DHT22;68253;52.506;5.486;2023-05-10T06:04:37;13.50;74.60
78876;DHT22;68253;52.506;5.486;2023-05-10T06:07:04;13.50;74.70
78876;DHT22;68253;52.506;5.486;2023-05-10T06:09:30;13.50;74.60
78876;DHT22;68253;52.506;5.486;2023-05-10T06:11:56;13.50;74.50
78876;DHT22;68253;52.506;5.486;2023-05-10T06:14:23;13.50;74.40
78876;DHT22;68253;52.506;5.486;2023-05-10T06:16:49;13.50;74.30
78876;DHT22;68253;52.506;5.486;2023-05-10T06:19:15;13.50;74.40
78876;DHT22;68253;52.506;5.486;2023-05-10T06:21:41;13.60;74.40
78876;DHT22;68253;52.506;5.486;2023-05-10T06:24:08;13.60;74.20
78876;DHT22;68253;52.506;5.486;2023-05-10T06:26:34;13.60;74.20
78876;DHT22;68253;52.506;5.486;2023-05-10T06:29:00;13.60;74.30
78876;DHT22;68253;52.506;5.486;2023-05-10T06:31:27;13.70;74.30
78876;DHT22;68253;52.506;5.486;2023-05-10T06:33:53;13.80;74.10
78876;DHT22;68253;52.506;5.486;2023-05-10T06:36:19;13.80;74.10
78876;DHT22;68253;52.506;5.486;2023-05-10T06:38:45;13.80;74.10
78876;DHT22;68253;52.506;5.486;2023-05-10T06:41:12;13.90;74.10
78876;DHT22;68253;52.506;5.486;2023-05-10T06:43:38;13.90;74.10
78876;DHT22;68253;52.506;5.486;2023-05-10T06:46:07;13.80;73.80
78876;DHT22;68253;52.506;5.486;2023-05-10T06:48:33;13.80;73.50
78876;DHT22;68253;52.506;5.486;2023-05-10T06:50:59;13.70;73.60
78876;DHT22;68253;52.506;5.486;2023-05-10T06:53:26;13.70;73.60
78876;DHT22;68253;52.506;5.486;2023-05-10T06:55:52;13.70;73.80
78876;DHT22;68253;52.506;5.486;2023-05-10T06:58:18;13.70;73.80
78876;DHT22;68253;52.506;5.486;2023-05-10T07:00:44;13.60;73.90
78876;DHT22;68253;52.506;5.486;2023-05-10T07:03:11;13.60;74.00
78876;DHT22;68253;52.506;5.486;2023-05-10T07:05:37;13.60;73.50
78876;DHT22;68253;52.506;5.486;2023-05-10T07:08:03;13.60;73.60
78876;DHT22;68253;52.506;5.486;2023-05-10T07:10:29;13.50;73.80
78876;DHT22;68253;52.506;5.486;2023-05-10T07:12:55;13.50;73.90
78876;DHT22;68253;52.506;5.486;2023-05-10T07:15:22;13.50;74.00
78876;DHT22;68253;52.506;5.486;2023-05-10T07:17:48;13.50;74.00
78876;DHT22;68253;52.506;5.486;2023-05-10T07:20:14;13.60;74.20
78876;DHT22;68253;52.506;5.486;2023-05-10T07:22:40;13.60;74.20
78876;DHT22;68253;52.506;5.486;2023-05-10T07:25:07;13.70;74.10
78876;DHT22;68253;52.506;5.486;2023-05-10T07:27:33;13.80;73.80
78876;DHT22;68253;52.506;5.486;2023-05-10T07:29:59;13.80;73.90
78876;DHT22;68253;52.506;5.486;2023-05-10T07:32:26;13.90;73.90
78876;DHT22;68253;52.506;5.486;2023-05-10T07:34:52;13.90;73.70
78876;DHT22;68253;52.506;5.486;2023-05-10T07:37:18;14.00;73.50
78876;DHT22;68253;52.506;5.486;2023-05-10T07:39:44;14.10;73.30
78876;DHT22;68253;52.506;5.486;2023-05-10T07:42:10;14.10;73.20
78876;DHT22;68253;52.506;5.486;2023-05-10T07:44:36;14.10;73.20
78876;DHT22;68253;52.506;5.486;2023-05-10T07:47:03;14.20;73.20
78876;DHT22;68253;52.506;5.486;2023-05-10T07:49:29;14.20;73.10
78876;DHT22;68253;52.506;5.486;2023-05-10T07:51:55;14.30;73.00
78876;DHT22;68253;52.506;5.486;2023-05-10T07:54:21;14.30;72.90
78876;DHT22;68253;52.506;5.486;2023-05-10T07:56:47;14.40;73.00
78876;DHT22;68253;52.506;5.486;2023-05-10T07:59:17;14.50;73.00
78876;DHT22;68253;52.506;5.486;2023-05-10T08:01:44;14.60;72.70
78876;DHT22;68253;52.506;5.486;2023-05-10T08:04:10;14.60;72.60
78876;DHT22;68253;52.506;5.486;2023-05-10T08:06:37;14.60;72.30
78876;DHT22;68253;52.506;5.486;2023-05-10T08:09:03;14.70;72.20
78876;DHT22;68253;52.506;5.486;2023-05-10T08:11:29;14.70;71.90
78876;DHT22;68253;52.506;5.486;2023-05-10T08:13:55;14.70;71.90
78876;DHT22;68253;52.506;5.486;2023-05-10T08:16:22;14.70;72.00
78876;DHT22;68253;52.506;5.486;2023-05-10T08:18:48;14.80;72.20
78876;DHT22;68253;52.506;5.486;2023-05-10T08:21:15;14.90;71.90
78876;DHT22;68253;52.506;5.486;2023-05-10T08:23:42;15.00;71.40
78876;DHT22;68253;52.506;5.486;2023-05-10T08:26:09;15.00;71.10
78876;DHT22;68253;52.506;5.486;2023-05-10T08:28:35;15.00;71.10
78876;DHT22;68253;52.506;5.486;2023-05-10T08:31:01;14.90;70.90
78876;DHT22;68253;52.506;5.486;2023-05-10T08:33:28;15.00;71.20
78876;DHT22;68253;52.506;5.486;2023-05-10T08:35:54;15.00;71.50
78876;DHT22;68253;52.506;5.486;2023-05-10T08:38:20;15.20;71.60
78876;DHT22;68253;52.506;5.486;2023-05-10T08:40:49;15.50;71.70
78876;DHT22;68253;52.506;5.486;2023-05-10T08:43:16;15.80;71.10
78876;DHT22;68253;52.506;5.486;2023-05-10T08:45:44;15.90;70.30
78876;DHT22;68253;52.506;5.486;2023-05-10T08:48:14;16.00;70.30
78876;DHT22;68253;52.506;5.486;2023-05-10T08:50:41;16.00;70.00
78876;DHT22;68253;52.506;5.486;2023-05-10T08:53:13;16.10;69.40
78876;DHT22;68253;52.506;5.486;2023-05-10T08:55:39;16.20;69.30
78876;DHT22;68253;52.506;5.486;2023-05-10T08:58:08;16.20;68.80
78876;DHT22;68253;52.506;5.486;2023-05-10T09:00:35;16.20;68.90
78876;DHT22;68253;52.506;5.486;2023-05-10T09:03:04;16.40;68.90
78876;DHT22;68253;52.506;5.486;2023-05-10T09:05:30;16.40;68.90
78876;DHT22;68253;52.506;5.486;2023-05-10T09:07:56;16.50;68.50
78876;DHT22;68253;52.506;5.486;2023-05-10T09:10:23;16.80;68.50
78876;DHT22;68253;52.506;5.486;2023-05-10T09:12:52;17.10;68.20
78876;DHT22;68253;52.506;5.486;2023-05-10T09:15:19;17.30;67.20
78876;DHT22;68253;52.506;5.486;2023-05-10T09:17:47;17.30;66.60
78876;DHT22;68253;52.506;5.486;2023-05-10T09:20:14;17.20;67.20
78876;DHT22;68253;52.506;5.486;2023-05-10T09:22:43;17.20;66.90
78876;DHT22;68253;52.506;5.486;2023-05-10T09:25:11;17.30;67.20
78876;DHT22;68253;52.506;5.486;2023-05-10T09:27:39;17.50;66.40
78876;DHT22;68253;52.506;5.486;2023-05-10T09:30:07;17.50;66.40
78876;DHT22;68253;52.506;5.486;2023-05-10T09:32:44;17.60;66.60
78876;DHT22;68253;52.506;5.486;2023-05-10T09:35:23;17.60;66.10
78876;DHT22;68253;52.506;5.486;2023-05-10T09:37:51;17.60;66.30
78876;DHT22;68253;52.506;5.486;2023-05-10T09:40:22;17.60;65.50
78876;DHT22;68253;52.506;5.486;2023-05-10T09:42:57;17.60;65.40
78876;DHT22;68253;52.506;5.486;2023-05-10T09:45:26;17.70;65.50
78876;DHT22;68253;52.506;5.486;2023-05-10T09:47:53;17.80;65.40
78876;DHT22;68253;52.506;5.486;2023-05-10T09:50:19;17.80;65.30
78876;DHT22;68253;52.506;5.486;2023-05-10T09:52:57;17.80;65.40
78876;DHT22;68253;52.506;5.486;2023-05-10T09:55:26;17.90;65.80
78876;DHT22;68253;52.506;5.486;2023-05-10T09:58:03;18.00;65.50
78876;DHT22;68253;52.506;5.486;2023-05-10T10:00:38;18.00;65.30
78876;DHT22;68253;52.506;5.486;2023-05-10T10:03:05;18.00;65.10
78876;DHT22;68253;52.506;5.486;2023-05-10T10:05:35;18.00;64.80
78876;DHT22;68253;52.506;5.486;2023-05-10T10:08:05;18.00;64.60
78876;DHT22;68253;52.506;5.486;2023-05-10T10:10:32;18.00;64.20
78876;DHT22;68253;52.506;5.486;2023-05-10T10:12:59;18.00;64.50
78876;DHT22;68253;52.506;5.486;2023-05-10T10:15:26;18.10;64.70
78876;DHT22;68253;52.506;5.486;2023-05-10T10:17:52;18.20;64.80
78876;DHT22;68253;52.506;5.486;2023-05-10T10:20:20;18.30;64.70
78876;DHT22;68253;52.506;5.486;2023-05-10T10:22:47;18.40;64.60
78876;DHT22;68253;52.506;5.486;2023-05-10T10:25:15;18.50;64.20
78876;DHT22;68253;52.506;5.486;2023-05-10T10:36:15;18.80;64.30
78876;DHT22;68253;52.506;5.486;2023-05-10T10:41:27;19.00;63.20
78876;DHT22;68253;52.506;5.486;2023-05-10T10:52:39;19.70;62.30
78876;DHT22;68253;52.506;5.486;2023-05-10T10:55:09;19.60;61.70
78876;DHT22;68253;52.506;5.486;2023-05-10T11:00:27;19.50;62.50
78876;DHT22;68253;52.506;5.486;2023-05-10T11:02:58;19.50;62.10
78876;DHT22;68253;52.506;5.486;2023-05-10T11:07:56;19.50;62.50
78876;DHT22;68253;52.506;5.486;2023-05-10T11:10:24;19.50;62.60
78876;DHT22;68253;52.506;5.486;2023-05-10T11:13:06;19.50;63.20
78876;DHT22;68253;52.506;5.486;2023-05-10T11:15:33;19.50;63.10
78876;DHT22;68253;52.506;5.486;2023-05-10T11:18:01;19.50;62.60
78876;DHT22;68253;52.506;5.486;2023-05-10T11:20:41;19.40;62.70
78876;DHT22;68253;52.506;5.486;2023-05-10T11:23:12;19.30;62.70
78876;DHT22;68253;52.506;5.486;2023-05-10T11:25:42;19.10;63.20
78876;DHT22;68253;52.506;5.486;2023-05-10T11:28:10;18.90;63.20
78876;DHT22;68253;52.506;5.486;2023-05-10T11:30:38;18.80;63.60
78876;DHT22;68253;52.506;5.486;2023-05-10T11:33:06;18.60;63.00
78876;DHT22;68253;52.506;5.486;2023-05-10T11:35:39;18.40;63.30
78876;DHT22;68253;52.506;5.486;2023-05-10T11:38:10;18.20;63.70
78876;DHT22;68253;52.506;5.486;2023-05-10T11:40:51;18.10;64.00
78876;DHT22;68253;52.506;5.486;2023-05-10T11:43:17;18.10;64.50
78876;DHT22;68253;52.506;5.486;2023-05-10T11:45:45;18.10;64.30
78876;DHT22;68253;52.506;5.486;2023-05-10T11:48:11;18.00;64.60
78876;DHT22;68253;52.506;5.486;2023-05-10T11:50:37;18.00;64.50
78876;DHT22;68253;52.506;5.486;2023-05-10T11:53:03;18.00;64.30
78876;DHT22;68253;52.506;5.486;2023-05-10T11:55:29;17.80;63.80
78876;DHT22;68253;52.506;5.486;2023-05-10T11:58:00;17.70;64.30
78876;DHT22;68253;52.506;5.486;2023-05-10T12:00:27;17.60;64.50
78876;DHT22;68253;52.506;5.486;2023-05-10T12:02:53;17.50;65.00
78876;DHT22;68253;52.506;5.486;2023-05-10T12:05:20;17.50;64.80
78876;DHT22;68253;52.506;5.486;2023-05-10T12:07:46;17.40;64.90
78876;DHT22;68253;52.506;5.486;2023-05-10T12:10:13;17.40;65.10
78876;DHT22;68253;52.506;5.486;2023-05-10T12:12:45;17.40;65.20
78876;DHT22;68253;52.506;5.486;2023-05-10T12:15:22;17.40;65.50
78876;DHT22;68253;52.506;5.486;2023-05-10T12:17:50;17.40;65.70
78876;DHT22;68253;52.506;5.486;2023-05-10T12:20:21;17.40;65.80
78876;DHT22;68253;52.506;5.486;2023-05-10T12:22:54;17.50;65.30
78876;DHT22;68253;52.506;5.486;2023-05-10T12:25:22;17.50;64.90
78876;DHT22;68253;52.506;5.486;2023-05-10T12:27:51;17.50;64.80
78876;DHT22;68253;52.506;5.486;2023-05-10T12:30:31;17.50;64.80
78876;DHT22;68253;52.506;5.486;2023-05-10T12:33:08;17.60;64.90
78876;DHT22;68253;52.506;5.486;2023-05-10T12:35:47;18.00;64.90
78876;DHT22;68253;52.506;5.486;2023-05-10T12:38:46;18.30;64.00
78876;DHT22;68253;52.506;5.486;2023-05-10T12:41:17;18.60;64.00
78876;DHT22;68253;52.506;5.486;2023-05-10T12:43:44;18.90;63.20
78876;DHT22;68253;52.506;5.486;2023-05-10T12:46:15;19.10;63.20
78876;DHT22;68253;52.506;5.486;2023-05-10T12:48:43;19.20;63.40
78876;DHT22;68253;52.506;5.486;2023-05-10T12:51:09;19.30;62.60
78876;DHT22;68253;52.506;5.486;2023-05-10T12:53:38;19.40;62.30
78876;DHT22;68253;52.506;5.486;2023-05-10T12:56:05;19.50;62.40
78876;DHT22;68253;52.506;5.486;2023-05-10T12:58:31;19.70;62.50
78876;DHT22;68253;52.506;5.486;2023-05-10T13:00:58;19.90;62.40
78876;DHT22;68253;52.506;5.486;2023-05-10T13:03:25;20.00;62.10
78876;DHT22;68253;52.506;5.486;2023-05-10T13:05:51;20.00;62.00
78876;DHT22;68253;52.506;5.486;2023-05-10T13:08:17;20.00;61.80
78876;DHT22;68253;52.506;5.486;2023-05-10T13:10:43;20.00;62.20
78876;DHT22;68253;52.506;5.486;2023-05-10T13:13:09;20.10;61.80
78876;DHT22;68253;52.506;5.486;2023-05-10T13:15:36;20.30;61.60
78876;DHT22;68253;52.506;5.486;2023-05-10T13:18:02;20.40;61.60
78876;DHT22;68253;52.506;5.486;2023-05-10T13:20:28;20.50;61.30
78876;DHT22;68253;52.506;5.486;2023-05-10T13:22:55;20.70;61.70
78876;DHT22;68253;52.506;5.486;2023-05-10T13:25:21;21.00;61.30
78876;DHT22;68253;52.506;5.486;2023-05-10T13:27:47;21.30;60.70
78876;DHT22;68253;52.506;5.486;2023-05-10T13:30:13;21.30;59.20
78876;DHT22;68253;52.506;5.486;2023-05-10T13:32:39;21.30;59.50
78876;DHT22;68253;52.506;5.486;2023-05-10T13:35:05;21.30;58.70
78876;DHT22;68253;52.506;5.486;2023-05-10T13:37:32;21.20;58.70
78876;DHT22;68253;52.506;5.486;2023-05-10T13:40:01;21.10;59.10
78876;DHT22;68253;52.506;5.486;2023-05-10T13:42:27;21.10;59.20
78876;DHT22;68253;52.506;5.486;2023-05-10T13:44:54;20.90;58.60
78876;DHT22;68253;52.506;5.486;2023-05-10T13:47:20;20.70;59.00
78876;DHT22;68253;52.506;5.486;2023-05-10T13:49:47;20.50;59.70
78876;DHT22;68253;52.506;5.486;2023-05-10T13:52:13;20.50;59.80
78876;DHT22;68253;52.506;5.486;2023-05-10T13:54:40;20.40;60.00
78876;DHT22;68253;52.506;5.486;2023-05-10T13:57:06;20.30;60.30
78876;DHT22;68253;52.506;5.486;2023-05-10T13:59:33;20.30;60.10
78876;DHT22;68253;52.506;5.486;2023-05-10T14:01:59;20.30;59.70
78876;DHT22;68253;52.506;5.486;2023-05-10T14:04:28;20.30;59.70
78876;DHT22;68253;52.506;5.486;2023-05-10T14:06:54;20.30;59.40
78876;DHT22;68253;52.506;5.486;2023-05-10T14:09:20;20.30;59.50
78876;DHT22;68253;52.506;5.486;2023-05-10T14:11:46;20.50;58.60
78876;DHT22;68253;52.506;5.486;2023-05-10T14:14:13;20.60;58.80
78876;DHT22;68253;52.506;5.486;2023-05-10T14:16:43;20.80;58.20
78876;DHT22;68253;52.506;5.486;2023-05-10T14:19:10;20.90;58.10
78876;DHT22;68253;52.506;5.486;2023-05-10T14:21:37;20.90;57.80
78876;DHT22;68253;52.506;5.486;2023-05-10T14:24:03;20.70;57.10
78876;DHT22;68253;52.506;5.486;2023-05-10T14:26:30;20.60;57.20
78876;DHT22;68253;52.506;5.486;2023-05-10T14:28:57;20.40;57.50
78876;DHT22;68253;52.506;5.486;2023-05-10T14:31:23;20.20;57.80
78876;DHT22;68253;52.506;5.486;2023-05-10T14:33:51;20.00;58.30
78876;DHT22;68253;52.506;5.486;2023-05-10T14:36:18;19.90;58.30
78876;DHT22;68253;52.506;5.486;2023-05-10T14:38:44;19.70;58.90
78876;DHT22;68253;52.506;5.486;2023-05-10T14:41:10;19.70;59.70
78876;DHT22;68253;52.506;5.486;2023-05-10T14:43:40;19.50;59.90
78876;DHT22;68253;52.506;5.486;2023-05-10T14:46:07;19.40;60.40
78876;DHT22;68253;52.506;5.486;2023-05-10T14:48:33;19.30;60.70
78876;DHT22;68253;52.506;5.486;2023-05-10T14:50:59;19.20;61.10
78876;DHT22;68253;52.506;5.486;2023-05-10T14:53:25;19.20;61.40
78876;DHT22;68253;52.506;5.486;2023-05-10T14:55:51;19.10;61.30
78876;DHT22;68253;52.506;5.486;2023-05-10T14:58:18;19.10;61.70
78876;DHT22;68253;52.506;5.486;2023-05-10T15:00:44;19.00;61.70
78876;DHT22;68253;52.506;5.486;2023-05-10T15:03:10;19.00;61.30
78876;DHT22;68253;52.506;5.486;2023-05-10T15:05:36;18.90;61.80
78876;DHT22;68253;52.506;5.486;2023-05-10T15:08:04;18.90;62.00
78876;DHT22;68253;52.506;5.486;2023-05-10T15:10:31;18.90;62.10
78876;DHT22;68253;52.506;5.486;2023-05-10T15:12:59;18.90;62.10
78876;DHT22;68253;52.506;5.486;2023-05-10T15:15:25;18.80;61.50
78876;DHT22;68253;52.506;5.486;2023-05-10T15:17:51;18.80;61.60
78876;DHT22;68253;52.506;5.486;2023-05-10T15:20:18;18.70;61.60
78876;DHT22;68253;52.506;5.486;2023-05-10T15:22:44;18.70;61.80
78876;DHT22;68253;52.506;5.486;2023-05-10T15:25:10;18.60;61.50
78876;DHT22;68253;52.506;5.486;2023-05-10T15:27:36;18.50;62.00
78876;DHT22;68253;52.506;5.486;2023-05-10T15:30:02;18.50;62.20
78876;DHT22;68253;52.506;5.486;2023-05-10T15:32:29;18.50;62.40
78876;DHT22;68253;52.506;5.486;2023-05-10T15:34:55;18.50;62.60
78876;DHT22;68253;52.506;5.486;2023-05-10T15:37:21;18.40;62.40
78876;DHT22;68253;52.506;5.486;2023-05-10T15:39:49;18.30;62.60
78876;DHT22;68253;52.506;5.486;2023-05-10T15:42:15;18.30;62.90
78876;DHT22;68253;52.506;5.486;2023-05-10T15:44:41;18.20;63.40
78876;DHT22;68253;52.506;5.486;2023-05-10T15:47:10;18.10;63.60
78876;DHT22;68253;52.506;5.486;2023-05-10T15:49:36;18.00;63.90
78876;DHT22;68253;52.506;5.486;2023-05-10T15:52:02;18.00;64.00
78876;DHT22;68253;52.506;5.486;2023-05-10T15:54:28;18.00;64.30
78876;DHT22;68253;52.506;5.486;2023-05-10T15:56:54;18.00;64.30
78876;DHT22;68253;52.506;5.486;2023-05-10T15:59:20;18.00;64.10
78876;DHT22;68253;52.506;5.486;2023-05-10T16:01:47;17.90;63.90
78876;DHT22;68253;52.506;5.486;2023-05-10T16:04:13;17.80;63.80
78876;DHT22;68253;52.506;5.486;2023-05-10T16:06:39;17.80;64.00
78876;DHT22;68253;52.506;5.486;2023-05-10T16:09:05;17.80;64.10
78876;DHT22;68253;52.506;5.486;2023-05-10T16:11:32;17.80;64.10
78876;DHT22;68253;52.506;5.486;2023-05-10T16:13:58;17.80;64.00
78876;DHT22;68253;52.506;5.486;2023-05-10T16:16:24;17.80;63.80
78876;DHT22;68253;52.506;5.486;2023-05-10T16:18:51;17.80;63.80
78876;DHT22;68253;52.506;5.486;2023-05-10T16:21:17;17.80;64.30